Flight Track Log - Related Links

Times and Time Zones

All times are in EDT time to prevent confusion due to time zone crossing. See the AAL1326 flight status page for this flight to view local times or setup timezone preferences in your user account.

Time Position Orientation Groundspeed Altitude Reporting Facility
EDT Latitude Longitude Course Direction KTS MPH feet Rate Location/Type
Mon 06:55:43 PM 41.9667 -87.8500 233° Southwest 183 211 2,600  Level Chicago TRACON
Mon 06:57:00 PM 41.6433 -87.7025 180° South  Level Estimated
Mon 06:57:00 PM 41.8095 -87.8833 180° South  Level FlightAware Approximate
Mon 06:57:35 PM 41.8606 -87.7917 180° South 254 292 5,000  Level Chicago Center
Mon 06:58:00 PM 41.5304 -87.6349 176° South  Level Estimated
Mon 06:58:37 PM 41.7864 -87.7875 178° South 266 306 5,100  Level Chicago Center
Mon 06:59:00 PM 41.4175 -87.5676 180° South  Level Estimated
Mon 07:00:00 PM 41.3046 -87.5005 180° South  Level Estimated
Mon 07:00:00 PM 41.6303 -87.6937 180° South  Level Estimated
Mon 07:00:41 PM 41.6167 -87.8292 180° South 289 333 10,500  Level Chicago Center
Mon 07:01:00 PM 41.2294 -87.6311 233° Southwest  Level FlightAware Approximate
Mon 07:02:00 PM 41.4552 -87.8571 187° South  Level FlightAware Approximate
Mon 07:02:45 PM 41.4314 -87.8728 187° South 358 412 15,300  Level Chicago Center
Mon 07:03:47 PM 41.3256 -87.8842 185° South 374 430 18,400 2,613 Climbing Chicago Center
Mon 07:04:49 PM 41.2175 -87.8925 183° South 383 441 20,700 2,323 Climbing Chicago Center
Mon 07:05:51 PM 41.1056 -87.8875 178° South 396 456 23,200 2,177 Climbing Chicago Center
Mon 07:06:53 PM 40.9644 -87.8822 178° South 418 481 25,200 1,839 Climbing Chicago Center
Mon 07:07:55 PM 40.8406 -87.8786 179° South 441 507 27,000 1,694 Climbing Chicago Center
Mon 07:08:57 PM 40.7156 -87.8756 179° South 449 517 28,700 1,725 Climbing Chicago Center
Mon 07:10:35 PM 40.5056 -87.8700 179° South 459 528 31,600 1,742 Climbing Indianapolis Center
Mon 07:11:01 PM 40.4625 -87.8675 177° South 455 524 32,300 1,636 Climbing Chicago Center
Mon 07:12:03 PM 40.3117 -87.8633 179° South 454 522 34,000 1,041 Climbing Chicago Center
Mon 07:12:39 PM 40.2556 -87.8608 178° South 451 519 34,000  Level Indianapolis Center
Mon 07:13:41 PM 40.1050 -87.8542 178° South 452 520 34,000  Level Indianapolis Center
Mon 07:14:42 PM 39.9797 -87.8483 178° South 453 521 34,000 282 Level Indianapolis Center
Mon 07:17:14 PM 39.6808 -87.8333 178° South 454 522 35,000 323 Climbing Chicago Center
Mon 07:17:48 PM 39.6036 -87.8317 179° South 453 521 35,000 63 Level Indianapolis Center
Mon 07:18:50 PM 39.4797 -87.8253 178° South 450 518 35,100 823 Climbing Indianapolis Center
Mon 07:19:52 PM 39.3378 -87.7856 168° South 449 517 36,700 616 Climbing Indianapolis Center
Mon 07:21:55 PM 39.1017 -87.7003 164° South 439 505 37,000 97 Climbing Indianapolis Center
Mon 07:22:57 PM 38.9778 -87.6864 175° South 444 511 37,000  Level Indianapolis Center
Mon 07:23:59 PM 38.8561 -87.6714 175° South 442 509 37,000  Level Indianapolis Center
Mon 07:25:01 PM 38.7322 -87.6558 174° South 446 513 37,000  Level Indianapolis Center
Mon 07:26:02 PM 38.5814 -87.6378 175° South 452 520 37,000  Level Indianapolis Center
Mon 07:27:04 PM 38.4583 -87.6144 172° South 449 517 37,000  Level Indianapolis Center
Mon 07:28:06 PM 38.3422 -87.5608 160° South 446 513 37,000  Level Indianapolis Center
Mon 07:29:08 PM 38.2283 -87.5050 159° South 441 507 37,000  Level Indianapolis Center
Mon 07:30:09 PM 38.1144 -87.4519 160° South 440 506 37,000  Level Indianapolis Center
Mon 07:31:11 PM 38.0003 -87.3975 159° South 441 507 37,000  Level Indianapolis Center
Mon 07:32:13 PM 37.8597 -87.3306 159° South 450 518 37,000  Level Indianapolis Center
Mon 07:33:14 PM 37.7439 -87.2769 160° South 460 529 37,000  Level Indianapolis Center
Mon 07:34:56 PM 37.5350 -87.1794 160° South 455 524 37,000  Level Memphis Center
Mon 07:35:56 PM 37.4128 -87.1244 160° South 469 540 37,000  Level Memphis Center
Mon 07:36:56 PM 37.2883 -87.0669 160° South 474 545 37,000  Level Memphis Center
Mon 07:37:56 PM 37.1658 -87.0069 159° South 474 545 37,000  Level Memphis Center
Mon 07:38:56 PM 37.0433 -86.9497 160° South 474 545 37,000  Level Memphis Center
Mon 07:39:56 PM 36.9189 -86.8953 161° South 474 545 37,000  Level Memphis Center
Mon 07:40:56 PM 36.7986 -86.8383 159° South 474 545 37,000  Level Memphis Center
Mon 07:41:56 PM 36.6761 -86.7817 160° South 474 545 37,000  Level Memphis Center
Mon 07:42:56 PM 36.5664 -86.7322 160° South 474 545 37,000 -769 Level Memphis Center
Mon 07:44:32 PM 36.3594 -86.6394 160° South 470 541 35,000 -1,000 Descending Indianapolis Center
Mon 07:44:56 PM 36.3169 -86.6172 157° South 479 551 35,000  Level Memphis Center
Mon 07:45:56 PM 36.1839 -86.5589 161° South 474 545 35,000  Level Memphis Center
Mon 07:46:56 PM 36.0569 -86.5033 161° South 474 545 35,000  Level Memphis Center
Mon 07:47:56 PM 35.9322 -86.4475 160° South 479 551 35,000  Level Memphis Center
Mon 07:49:46 PM 35.7050 -86.3481 160° South 484 557 35,000  Level Atlanta Center
Mon 07:50:46 PM 35.5808 -86.2936 160° South 477 549 35,000  Level Atlanta Center
Mon 07:51:46 PM 35.4711 -86.2419 159° South 477 549 35,000  Level Atlanta Center
Mon 07:53:00 PM 35.3402 -86.1639 161° South  Level FlightAware Approximate
Mon 07:53:46 PM 35.2206 -86.1336 161° South 477 549 35,000  Level Atlanta Center
Mon 07:54:46 PM 35.0900 -86.0744 160° South 470 541 35,000  Level Atlanta Center
Mon 07:55:46 PM 34.9678 -86.0233 161° South 470 541 35,000  Level Atlanta Center
Mon 07:56:46 PM 34.8456 -85.9672 159° South 464 534 35,000  Level Atlanta Center
Mon 07:57:46 PM 34.7233 -85.9114 159° South 464 534 35,000  Level Atlanta Center
Mon 07:59:00 PM 34.5911 -85.8372 162° South  Level FlightAware Approximate
Mon 07:59:46 PM 34.4725 -85.8100 162° South 464 534 35,000  Level Atlanta Center
Mon 08:00:46 PM 34.3625 -85.7625 160° South 464 534 35,000  Level Atlanta Center
Mon 08:02:00 PM 34.2282 -85.6962 158° South  Level FlightAware Approximate
Mon 08:02:46 PM 34.1133 -85.6572 158° South 469 540 35,000  Level Atlanta Center
Mon 08:03:46 PM 33.9908 -85.6022 160° South 469 540 35,000  Level Atlanta Center
Mon 08:04:46 PM 33.8644 -85.5497 161° South 469 540 35,000  Level Atlanta Center
Mon 08:05:46 PM 33.7378 -85.4953 160° South 479 551 35,000  Level Atlanta Center
Mon 08:06:46 PM 33.6131 -85.4456 162° South 479 551 35,000  Level Atlanta Center
Mon 08:07:46 PM 33.4864 -85.3914 160° South 479 551 35,000  Level Atlanta Center
Mon 08:08:46 PM 33.3575 -85.3369 161° South 484 557 35,000  Level Atlanta Center
Mon 08:09:46 PM 33.2181 -85.2803 161° South 479 551 35,000  Level Atlanta Center
Mon 08:10:46 PM 33.0914 -85.2289 161° South 484 557 35,000  Level Atlanta Center
Mon 08:11:46 PM 32.9644 -85.1753 160° South 484 557 35,000  Level Atlanta Center
Mon 08:12:46 PM 32.8356 -85.1364 166° South 484 557 35,000  Level Atlanta Center
Mon 08:13:46 PM 32.7064 -85.0881 163° South 478 550 35,000  Level Atlanta Center
Mon 08:15:00 PM 32.5662 -85.0386 164° South  Level FlightAware Approximate
Mon 08:15:46 PM 32.4547 -85.0014 164° South 472 543 35,000  Level Atlanta Center
Mon 08:17:00 PM 32.3139 -84.9545 164° South  Level FlightAware Approximate
Mon 08:17:46 PM 32.2131 -84.9225 164° South 472 543 35,000  Level Atlanta Center
Mon 08:18:46 PM 32.0881 -84.8822 165° South 472 543 35,000  Level Atlanta Center
Mon 08:21:14 PM 31.7642 -84.7742 164° South 486 559 35,000  Level Jacksonville Center
Mon 08:22:14 PM 31.6375 -84.7325 164° South 472 543 35,000  Level Jacksonville Center
Mon 08:23:14 PM 31.5108 -84.6908 164° South 472 543 35,000  Level Jacksonville Center
Mon 08:25:00 PM 31.3115 -84.6149 164° South  Level FlightAware Approximate
Mon 08:26:14 PM 31.1344 -84.5647 164° South 477 549 35,000  Level Jacksonville Center
Mon 08:28:14 PM 30.8789 -84.4806 164° South 472 543 35,000  Level Jacksonville Center
Mon 08:29:14 PM 30.7519 -84.4372 164° South 472 543 35,000  Level Jacksonville Center
Mon 08:30:14 PM 30.6272 -84.3942 163° South 472 543 35,000  Level Jacksonville Center
Mon 08:31:14 PM 30.5150 -84.3489 161° South 472 543 35,000  Level Jacksonville Center
Mon 08:32:14 PM 30.3989 -84.2725 150° Southeast 477 549 35,000 -50 Level Jacksonville Center
Mon 08:33:14 PM 30.2703 -84.1889 151° Southeast 477 549 34,900 -50 Descending Jacksonville Center
Mon 08:34:14 PM 30.1667 -84.1203 150° Southeast 477 549 34,900  Level Jacksonville Center
Mon 08:36:14 PM 29.9364 -83.9689 150° Southeast 477 549 34,900  Level Jacksonville Center
Mon 08:37:14 PM 29.8219 -83.8956 151° Southeast 477 549 34,900 50 Level Jacksonville Center
Mon 08:38:14 PM 29.7142 -83.8133 146° Southeast 477 549 35,000 33 Climbing Jacksonville Center
Mon 08:40:14 PM 29.4919 -83.6467 147° Southeast 478 550 35,000  Level Jacksonville Center
Mon 08:41:14 PM 29.3817 -83.5647 147° Southeast 478 550 35,000  Level Jacksonville Center
Mon 08:42:14 PM 29.2714 -83.4806 146° Southeast 478 550 35,000  Level Jacksonville Center
Mon 08:43:14 PM 29.1633 -83.3992 147° Southeast 478 550 35,000 -50 Level Jacksonville Center
Mon 08:44:14 PM 29.0550 -83.3200 147° Southeast 473 544 34,900  Descending Jacksonville Center
Mon 08:45:14 PM 28.9489 -83.2389 146° Southeast 473 544 35,000  Climbing Jacksonville Center
Mon 08:46:14 PM 28.8364 -83.1581 148° Southeast 478 550 34,900 -32 Descending Jacksonville Center
Mon 08:48:22 PM 28.6056 -82.9886 147° Southeast 452 520 34,900 32 Level Miami Center
Mon 08:49:22 PM 28.4983 -82.9097 147° Southeast 457 526 35,000 50 Climbing Miami Center
Mon 08:50:22 PM 28.3911 -82.8331 148° Southeast 462 532 35,000  Level Miami Center
Mon 08:51:22 PM 28.2839 -82.7519 146° Southeast 462 532 35,000  Level Miami Center
Mon 08:53:22 PM 28.0653 -82.5900 147° Southeast 469 540 35,000 -33 Level Miami Center
Mon 08:54:22 PM 27.9533 -82.5164 150° Southeast 469 540 34,900 -150 Descending Miami Center
Mon 08:55:22 PM 27.8383 -82.4708 161° South 456 525 34,700 -500 Descending Miami Center
Mon 08:56:22 PM 27.7150 -82.4225 161° South 451 519 33,900 -950 Descending Miami Center
Mon 08:57:22 PM 27.5833 -82.3761 163° South 457 526 32,800 -1,000 Descending Miami Center
Mon 08:58:22 PM 27.4619 -82.3306 162° South 457 526 31,900 -900 Descending Miami Center
Mon 08:59:22 PM 27.3364 -82.2825 161° South 463 533 31,000 -1,000 Descending Miami Center
Mon 09:01:22 PM 27.1200 -82.1022 143° Southeast 495 570 28,900 -1,033 Descending Miami Center
Mon 09:02:22 PM 27.0169 -82.0019 139° Southeast 495 570 27,900 -1,480 Descending Miami Center
Mon 09:04:00 PM 26.8718 -81.8534 142° Southeast  Level FlightAware Approximate
Mon 09:06:22 PM 26.6225 -81.6364 121° Southeast 455 524 21,500  Level Miami Center
Mon 09:07:22 PM 26.5422 -81.5378 132° Southeast 430 495 19,500 -2,000 Descending Miami Center
Mon 09:08:22 PM 26.4719 -81.4492 132° Southeast 413 475 17,500 -2,200 Descending Miami Center
Mon 09:09:22 PM 26.3997 -81.3536 130° Southeast 413 475 15,100 -2,300 Descending Miami Center
Mon 09:10:22 PM 26.3294 -81.2583 129° Southeast 408 470 12,900 -2,200 Descending Miami Center
Mon 09:11:00 PM 26.2565 -81.2502 121° Southeast  Level FlightAware Approximate
Mon 09:11:22 PM 26.2611 -81.1725 132° Southeast 393 452 10,700  Level Miami Center
Mon 09:12:06 PM 26.2086 -81.1058 131° Southeast 326 375 10,300 -500 Descending Miami Center
Mon 09:12:22 PM 26.1986 -81.0914 128° Southeast 366 421 10,200 -1,091 Descending Miami Center
Mon 09:13:12 PM 26.1464 -81.0247 131° Southeast 298 343 9,100 -1,100 Descending Miami Center
Mon 09:14:22 PM 26.1006 -80.9447 123° Southeast 304 350 8,000 -692 Descending Miami Center
Mon 09:15:22 PM 26.1050 -80.8569 87° East 277 319 7,600 -403 Descending Miami Center
Mon 09:16:21 PM 26.1097 -80.7575 87° East 287 330 7,200 -611 Descending Miami Center
Mon 09:17:10 PM 26.1139 -80.6883 86° East 288 331 6,500 -516 Descending Miami Center
Mon 09:18:29 PM 26.1208 -80.5775 86° East 270 311 6,100 -156 Descending Miami Center
Mon 09:20:22 PM 26.1331 -80.4228 85° East 271 312 6,000  Descending Miami Center
Mon 09:21:19 PM 26.1372 -80.3350 87° East 280 322 6,100  Climbing Miami Center
Mon 09:22:26 PM 26.1436 -80.2358 86° East 286 329 6,000 -569 Descending Miami Center
Mon 09:23:15 PM 26.1472 -80.1686 87° East 274 315 5,000 -1,255 Descending Miami Center
Mon 09:24:16 PM 26.1492 -80.0808 89° East 273 314 3,700 -1,220 Descending Miami Center
Mon 09:25:18 PM 26.1469 -79.9997 92° East 260 299 2,500 -1,161 Descending Miami Center

Login

Don't have an account? Register now (free) for customized features, flight alerts, and more!